Time;durP1;ratioP1;P1;durP2;ratioP2;P2;SDS_P1;SDS_P2;PMS_P1;PMS_P2;Temp;Humidity;BMP_temperature;BMP_pressure;BME280_temperature;BME280_humidity;BME280_pressure;Samples;Min_cycle;Max_cycle;Signal;HPM_P1;HPM_P2
2024/03/22 00:00:42;;;;;;;31.10;10.50;;;10.90;99.90;;;;;;5039206;28;20190;-85
2024/03/22 00:03:07;;;;;;;28.57;8.80;;;10.90;99.90;;;;;;5038147;28;20170;-85
2024/03/22 00:05:33;;;;;;;26.10;8.07;;;10.90;99.90;;;;;;5038767;28;20178;-85
2024/03/22 00:07:59;;;;;;;27.07;8.70;;;10.90;99.90;;;;;;5056816;28;20169;-86
2024/03/22 00:10:25;;;;;;;30.27;9.60;;;10.90;99.90;;;;;;5056756;28;20291;-85
2024/03/22 00:12:51;;;;;;;24.17;9.38;;;10.90;99.90;;;;;;5038380;28;20415;-85
2024/03/22 00:15:17;;;;;;;26.77;8.53;;;10.90;99.90;;;;;;5056749;28;20193;-85
2024/03/22 00:17:44;;;;;;;27.67;8.70;;;10.90;99.90;;;;;;5038656;28;20450;-85
2024/03/22 00:20:10;;;;;;;25.58;8.73;;;10.90;99.90;;;;;;5056675;28;20173;-85
2024/03/22 00:22:36;;;;;;;26.80;9.00;;;10.90;99.90;;;;;;5039024;28;20658;-85
2024/03/22 00:25:04;;;;;;;25.63;9.30;;;10.90;99.90;;;;;;5056428;28;20399;-85
2024/03/22 00:27:30;;;;;;;25.58;8.15;;;10.90;99.90;;;;;;5055849;28;20227;-85
2024/03/22 00:29:56;;;;;;;26.57;8.10;;;10.90;99.90;;;;;;5055068;28;20169;-85
2024/03/22 00:32:21;;;;;;;29.47;9.27;;;10.90;99.90;;;;;;5055979;28;20185;-85
2024/03/22 00:34:47;;;;;;;27.37;8.80;;;10.80;99.90;;;;;;5048801;28;20189;-86
2024/03/22 00:37:12;;;;;;;29.10;8.23;;;10.80;99.90;;;;;;5052929;28;20169;-86
2024/03/22 00:39:38;;;;;;;25.00;8.43;;;10.80;99.90;;;;;;5052516;28;20256;-86
2024/03/22 00:42:04;;;;;;;28.40;8.30;;;10.80;99.90;;;;;;5069978;28;20178;-86
2024/03/22 00:44:29;;;;;;;30.17;9.37;;;10.80;99.90;;;;;;5053079;28;20165;-86
2024/03/22 00:46:55;;;;;;;27.07;8.90;;;10.80;99.90;;;;;;5052343;28;20439;-86
2024/03/22 00:49:21;;;;;;;28.33;8.17;;;10.80;99.90;;;;;;5070505;28;20187;-86
2024/03/22 00:51:47;;;;;;;35.07;8.73;;;10.80;99.90;;;;;;5071071;28;20210;-86
2024/03/22 00:54:13;;;;;;;23.83;6.38;;;10.80;99.90;;;;;;5070555;28;20189;-86
2024/03/22 00:56:38;;;;;;;29.40;8.83;;;10.80;99.90;;;;;;5069981;28;20157;-86
2024/03/22 00:59:04;;;;;;;24.50;7.20;;;10.80;99.90;;;;;;5050120;28;20951;-86
2024/03/22 01:01:30;;;;;;;23.60;7.93;;;10.80;99.90;;;;;;5069590;28;20192;-86
2024/03/22 01:03:55;;;;;;;23.87;7.87;;;10.80;99.90;;;;;;5065469;28;20739;-85
2024/03/22 01:06:24;;;;;;;25.27;8.40;;;10.80;99.90;;;;;;5058783;28;20503;-85
2024/03/22 01:08:51;;;;;;;26.35;7.05;;;10.80;99.90;;;;;;5058252;28;20168;-85
2024/03/22 01:11:17;;;;;;;29.58;8.25;;;10.80;99.90;;;;;;5039586;28;20189;-85
2024/03/22 01:13:43;;;;;;;27.35;8.48;;;10.80;99.90;;;;;;5057925;28;20251;-85
2024/03/22 01:16:09;;;;;;;28.03;8.43;;;10.80;99.90;;;;;;5057375;28;20189;-85
2024/03/22 01:18:36;;;;;;;26.80;7.63;;;10.80;99.90;;;;;;5057998;28;20157;-85
2024/03/22 01:21:02;;;;;;;24.42;8.25;;;10.80;99.90;;;;;;5057908;28;20276;-85
2024/03/22 01:23:28;;;;;;;22.77;7.43;;;10.70;99.90;;;;;;5058267;28;20158;-85
2024/03/22 01:25:53;;;;;;;25.70;7.37;;;10.70;99.90;;;;;;5040238;28;20630;-85
2024/03/22 01:28:19;;;;;;;21.73;7.60;;;10.80;99.90;;;;;;5057779;28;20203;-85
2024/03/22 01:30:45;;;;;;;27.33;8.00;;;10.80;99.90;;;;;;5057949;28;20189;-85
2024/03/22 01:33:13;;;;;;;24.20;7.00;;;10.80;99.90;;;;;;5039039;28;20176;-85
2024/03/22 01:35:39;;;;;;;25.45;8.02;;;10.80;99.90;;;;;;5056966;28;20189;-85
2024/03/22 01:38:05;;;;;;;21.63;7.10;;;10.70;99.90;;;;;;5039023;28;20191;-85
2024/03/22 01:40:31;;;;;;;20.40;6.23;;;10.80;99.90;;;;;;5056992;28;20216;-85
2024/03/22 01:42:57;;;;;;;24.80;7.70;;;10.80;99.90;;;;;;5039867;28;20165;-85
2024/03/22 01:45:26;;;;;;;21.87;7.47;;;10.80;99.90;;;;;;5057090;28;20187;-85
2024/03/22 01:47:55;;;;;;;20.48;6.95;;;10.80;99.90;;;;;;5040222;28;20415;-85
2024/03/22 01:50:24;;;;;;;25.67;7.47;;;10.80;99.90;;;;;;5039985;28;20169;-85
2024/03/22 01:52:51;;;;;;;23.42;7.63;;;10.80;99.90;;;;;;5058285;28;20207;-85
2024/03/22 01:55:17;;;;;;;27.08;8.50;;;10.80;99.90;;;;;;5039605;28;20197;-85
2024/03/22 01:57:44;;;;;;;23.47;7.80;;;10.80;99.90;;;;;;5057867;28;20177;-85
2024/03/22 02:00:10;;;;;;;24.40;6.50;;;10.80;99.90;;;;;;5058032;28;20157;-85
2024/03/22 02:02:36;;;;;;;22.40;7.88;;;10.80;99.90;;;;;;5123433;22;20221;-85
2024/03/22 02:05:21;;;;;;;27.40;7.97;;;10.80;99.90;;;;;;5118944;23;20223;-85
2024/03/22 02:07:47;;;;;;;25.85;9.20;;;10.80;99.90;;;;;;5191671;22;20224;-85
2024/03/22 02:10:13;;;;;;;22.73;6.95;;;10.90;99.90;;;;;;5061651;28;20165;-85
2024/03/22 02:12:39;;;;;;;26.87;8.10;;;10.90;99.90;;;;;;5059589;28;20189;-85
2024/03/22 02:15:09;;;;;;;22.70;6.70;;;10.80;99.90;;;;;;5061341;28;20845;-85
2024/03/22 02:20:04;;;;;;;23.58;7.07;;;10.90;99.90;;;;;;5020787;28;20206;-86
2024/03/22 02:22:30;;;;;;;21.85;7.95;;;10.90;99.90;;;;;;5021255;28;20203;-85
2024/03/22 02:24:55;;;;;;;27.53;9.07;;;10.80;99.90;;;;;;5023412;28;20171;-86
2024/03/22 02:27:21;;;;;;;20.00;6.37;;;10.80;99.90;;;;;;5028616;28;20190;-85
2024/03/22 02:29:47;;;;;;;21.37;7.30;;;10.80;99.90;;;;;;5027790;28;20186;-86
2024/03/22 02:32:13;;;;;;;23.73;7.00;;;10.80;99.90;;;;;;5028830;28;20182;-86
2024/03/22 02:34:38;;;;;;;24.15;7.93;;;10.80;99.90;;;;;;5028929;28;20186;-86
2024/03/22 02:37:04;;;;;;;21.40;7.10;;;10.70;99.90;;;;;;5027971;28;20189;-86
2024/03/22 02:39:30;;;;;;;21.20;7.17;;;10.70;99.90;;;;;;5028490;28;20190;-86
2024/03/22 02:41:56;;;;;;;22.27;8.53;;;10.70;99.90;;;;;;5028012;28;20209;-86
2024/03/22 02:44:21;;;;;;;22.80;7.03;;;10.70;99.90;;;;;;5028032;28;20264;-86
2024/03/22 02:46:47;;;;;;;24.00;7.30;;;10.70;99.90;;;;;;5028725;28;20171;-86
2024/03/22 02:49:13;;;;;;;24.27;7.50;;;10.70;99.90;;;;;;5028265;28;20251;-86
2024/03/22 02:51:38;;;;;;;26.23;7.30;;;10.70;99.90;;;;;;5027979;28;20228;-86
2024/03/22 02:54:04;;;;;;;24.20;8.07;;;10.80;99.90;;;;;;5028690;28;20213;-86
2024/03/22 02:56:30;;;;;;;24.50;8.30;;;10.80;99.90;;;;;;5028736;28;20253;-86
2024/03/22 02:58:56;;;;;;;23.00;6.90;;;10.70;99.90;;;;;;5028540;28;20170;-86
2024/03/22 03:01:21;;;;;;;23.60;6.90;;;10.70;99.90;;;;;;5028096;28;20186;-86
2024/03/22 03:03:47;;;;;;;23.60;7.13;;;10.80;99.90;;;;;;5027788;28;20174;-86
2024/03/22 03:06:16;;;;;;;23.90;7.33;;;10.80;99.90;;;;;;5028703;28;20182;-86
2024/03/22 03:08:42;;;;;;;22.10;6.30;;;10.80;99.90;;;;;;5026968;28;20167;-85
2024/03/22 03:11:08;;;;;;;24.07;8.20;;;10.80;99.90;;;;;;5028146;28;20187;-86
2024/03/22 03:13:37;;;;;;;25.43;7.87;;;10.90;99.90;;;;;;5027332;28;20177;-86
2024/03/22 03:16:03;;;;;;;25.88;7.20;;;10.80;99.90;;;;;;5028719;28;20202;-86
2024/03/22 03:18:28;;;;;;;25.02;6.72;;;10.90;99.90;;;;;;5026187;28;20178;-86
2024/03/22 03:20:54;;;;;;;24.03;7.73;;;10.90;99.90;;;;;;5027346;28;20254;-86
2024/03/22 03:23:20;;;;;;;22.73;7.03;;;10.80;99.90;;;;;;5028213;28;20496;-86
2024/03/22 03:25:46;;;;;;;20.37;6.17;;;10.80;99.90;;;;;;5026754;28;20174;-86
2024/03/22 03:28:13;;;;;;;22.63;7.70;;;10.90;99.90;;;;;;5028459;28;20171;-85
2024/03/22 03:30:39;;;;;;;21.80;6.20;;;10.90;99.90;;;;;;5026967;28;20238;-86
2024/03/22 03:33:04;;;;;;;22.27;6.50;;;10.90;99.90;;;;;;5028548;28;20166;-86
2024/03/22 03:35:30;;;;;;;26.30;8.70;;;10.90;99.90;;;;;;5027232;28;20457;-86
2024/03/22 03:37:56;;;;;;;23.50;7.50;;;10.90;99.90;;;;;;5026747;28;20177;-86
2024/03/22 03:40:24;;;;;;;25.50;8.10;;;10.80;99.90;;;;;;5026275;28;20162;-86
2024/03/22 03:42:50;;;;;;;25.92;6.88;;;10.80;99.90;;;;;;5026862;28;20401;-86
2024/03/22 03:45:16;;;;;;;22.10;7.10;;;10.80;99.90;;;;;;5028042;28;20163;-86
2024/03/22 03:47:42;;;;;;;22.33;7.40;;;10.90;99.90;;;;;;5026956;28;20166;-86
2024/03/22 03:50:08;;;;;;;21.43;6.77;;;10.90;99.90;;;;;;5026158;28;20420;-85
2024/03/22 03:52:36;;;;;;;21.87;6.63;;;10.90;99.90;;;;;;5019902;28;20417;-85
2024/03/22 03:55:02;;;;;;;22.73;7.10;;;10.90;99.90;;;;;;5020233;28;20445;-85
2024/03/22 03:57:30;;;;;;;29.20;7.57;;;10.80;99.90;;;;;;5019418;28;20159;-85
2024/03/22 03:59:56;;;;;;;19.55;7.07;;;10.80;99.90;;;;;;5018787;28;20163;-85
2024/03/22 04:02:21;;;;;;;20.60;6.90;;;10.80;99.90;;;;;;5018544;28;20213;-85
2024/03/22 04:04:47;;;;;;;19.50;6.63;;;10.80;99.90;;;;;;5018165;28;20174;-84
2024/03/22 04:07:13;;;;;;;24.03;7.07;;;10.70;99.90;;;;;;5018754;28;20174;-85
2024/03/22 04:09:38;;;;;;;22.17;7.43;;;10.70;99.90;;;;;;5023329;28;20166;-85
2024/03/22 04:12:07;;;;;;;21.97;6.57;;;10.70;99.90;;;;;;5021216;28;20194;-86
2024/03/22 04:14:33;;;;;;;25.90;7.78;;;10.80;99.90;;;;;;5023026;28;20197;-85
2024/03/22 04:16:58;;;;;;;24.73;6.93;;;10.80;99.90;;;;;;5021068;28;20163;-85
2024/03/22 04:19:30;;;;;;;22.10;6.73;;;10.80;99.90;;;;;;5022928;28;20197;-85
2024/03/22 04:21:56;;;;;;;23.98;6.05;;;10.80;99.90;;;;;;5021688;28;20190;-85
2024/03/22 04:24:21;;;;;;;22.10;6.97;;;10.70;99.90;;;;;;5021708;28;20247;-85
2024/03/22 04:26:47;;;;;;;21.37;7.40;;;10.80;99.90;;;;;;5022936;28;20186;-85
2024/03/22 04:29:13;;;;;;;22.80;6.60;;;10.70;99.90;;;;;;5023028;28;20194;-85
2024/03/22 04:31:39;;;;;;;31.30;6.57;;;10.70;99.90;;;;;;5021231;28;20217;-85
2024/03/22 04:34:07;;;;;;;20.10;5.87;;;10.60;99.90;;;;;;5022948;28;20182;-85
2024/03/22 04:36:33;;;;;;;20.95;5.75;;;10.60;99.90;;;;;;5021697;28;20174;-85
2024/03/22 04:38:58;;;;;;;34.45;7.55;;;10.50;99.90;;;;;;5022607;28;20183;-85
2024/03/22 04:41:24;;;;;;;18.97;5.93;;;10.40;99.90;;;;;;5020410;28;20191;-85
2024/03/22 04:43:50;;;;;;;20.57;7.10;;;10.40;99.90;;;;;;5021725;28;20220;-85
2024/03/22 04:46:15;;;;;;;22.10;6.50;;;10.40;99.90;;;;;;5022706;28;20173;-85
2024/03/22 04:48:41;;;;;;;23.20;6.60;;;10.30;99.90;;;;;;5022012;28;20238;-85
2024/03/22 04:51:07;;;;;;;21.50;6.70;;;10.30;99.90;;;;;;5020812;28;20620;-85
2024/03/22 04:53:32;;;;;;;23.03;6.50;;;10.30;99.90;;;;;;5022380;28;20639;-85
2024/03/22 04:55:58;;;;;;;21.63;6.87;;;10.30;99.90;;;;;;5022006;28;20556;-85
2024/03/22 04:58:23;;;;;;;23.50;7.30;;;10.30;99.90;;;;;;5019455;28;20163;-85
2024/03/22 05:00:55;;;;;;;23.10;6.70;;;10.30;99.90;;;;;;5019120;28;20273;-85
2024/03/22 05:03:21;;;;;;;21.30;7.88;;;10.30;99.90;;;;;;5018059;28;20158;-85
2024/03/22 05:05:46;;;;;;;23.13;7.27;;;10.30;99.90;;;;;;5017914;28;20175;-84
2024/03/22 05:08:13;;;;;;;22.73;5.70;;;10.40;99.90;;;;;;5019458;28;20170;-84
2024/03/22 05:10:39;;;;;;;20.95;8.25;;;10.40;99.90;;;;;;5017892;28;20175;-84
2024/03/22 05:13:05;;;;;;;21.20;6.77;;;10.40;99.90;;;;;;5017621;28;20170;-85
2024/03/22 05:15:30;;;;;;;23.07;8.30;;;10.40;99.90;;;;;;5019722;28;20620;-86
2024/03/22 05:17:58;;;;;;;27.20;8.90;;;10.40;99.90;;;;;;5030763;28;20209;-86
2024/03/22 05:20:23;;;;;;;24.73;8.70;;;10.50;99.90;;;;;;5029562;28;20234;-86
2024/03/22 05:22:49;;;;;;;21.20;7.40;;;10.50;99.90;;;;;;5030498;28;20166;-86
2024/03/22 05:25:15;;;;;;;27.83;7.37;;;10.50;99.90;;;;;;5029764;28;20208;-86
2024/03/22 05:27:44;;;;;;;25.50;7.60;;;10.60;99.90;;;;;;5030845;28;20167;-86
2024/03/22 05:30:10;;;;;;;30.38;8.43;;;10.60;99.90;;;;;;5030778;28;20186;-86
2024/03/22 05:32:36;;;;;;;22.77;7.78;;;10.60;99.90;;;;;;5028802;28;20218;-86
2024/03/22 05:35:02;;;;;;;28.27;8.13;;;10.60;99.90;;;;;;5029607;28;20202;-86
2024/03/22 05:37:30;;;;;;;22.37;8.00;;;10.60;99.90;;;;;;5029928;28;20159;-86
2024/03/22 05:39:56;;;;;;;24.00;8.30;;;10.60;99.90;;;;;;5030301;28;20573;-86
2024/03/22 05:42:22;;;;;;;23.73;8.63;;;10.60;99.90;;;;;;5028768;28;20245;-86
2024/03/22 05:44:48;;;;;;;21.83;8.13;;;10.60;99.90;;;;;;5029301;28;20186;-86
2024/03/22 05:47:14;;;;;;;24.38;9.10;;;10.60;99.90;;;;;;5029540;28;20198;-86
2024/03/22 05:49:40;;;;;;;25.35;8.10;;;10.70;99.90;;;;;;5028475;28;20182;-85
2024/03/22 05:52:06;;;;;;;30.73;9.70;;;10.70;99.90;;;;;;5028424;28;20190;-86
2024/03/22 05:54:31;;;;;;;24.10;8.40;;;10.70;99.90;;;;;;5029104;28;20270;-86
2024/03/22 05:56:57;;;;;;;22.13;7.93;;;10.80;99.90;;;;;;5029438;28;20437;-86
2024/03/22 05:59:23;;;;;;;24.97;8.90;;;10.80;99.90;;;;;;5028273;28;20173;-86
2024/03/22 06:01:48;;;;;;;24.00;8.87;;;10.80;99.90;;;;;;5028929;28;20262;-86
2024/03/22 06:04:14;;;;;;;29.87;10.60;;;10.90;99.90;;;;;;5029060;28;20180;-86
2024/03/22 06:06:40;;;;;;;27.80;10.10;;;10.90;99.90;;;;;;5028838;28;20166;-86
2024/03/22 06:09:11;;;;;;;24.57;8.90;;;11.00;99.90;;;;;;5028294;28;20516;-86
2024/03/22 06:11:37;;;;;;;29.02;9.65;;;11.00;99.90;;;;;;5028260;28;20199;-86
2024/03/22 06:14:02;;;;;;;26.23;8.70;;;11.00;99.90;;;;;;5028064;28;20171;-86
2024/03/22 06:16:28;;;;;;;28.33;9.57;;;11.10;99.90;;;;;;5029222;28;20412;-86
2024/03/22 06:18:54;;;;;;;23.50;9.37;;;11.20;99.90;;;;;;5026955;28;20182;-85
2024/03/22 06:21:21;;;;;;;26.17;7.97;;;11.20;99.90;;;;;;5026610;28;20187;-85
2024/03/22 06:23:50;;;;;;;29.92;9.23;;;11.30;99.90;;;;;;5026708;28;20174;-86
2024/03/22 06:26:16;;;;;;;34.35;11.32;;;11.30;99.90;;;;;;5028728;28;20173;-85
2024/03/22 06:28:42;;;;;;;28.50;10.70;;;11.40;99.90;;;;;;5028463;28;20237;-85
2024/03/22 06:31:07;;;;;;;23.07;8.53;;;11.40;99.90;;;;;;5028133;28;20195;-86
2024/03/22 06:33:33;;;;;;;23.77;8.63;;;11.50;99.90;;;;;;5027789;28;20229;-85
2024/03/22 06:35:59;;;;;;;24.37;9.00;;;11.60;99.90;;;;;;5028500;28;20190;-85
2024/03/22 06:38:25;;;;;;;31.00;10.43;;;11.60;99.90;;;;;;5028874;28;20166;-86
2024/03/22 06:40:51;;;;;;;32.73;9.50;;;11.60;99.90;;;;;;5022736;28;20182;-85
2024/03/22 06:43:16;;;;;;;23.50;8.87;;;11.70;99.90;;;;;;5018551;28;20843;-85
2024/03/22 06:45:42;;;;;;;27.70;10.47;;;11.70;99.90;;;;;;5019209;28;20202;-85
2024/03/22 06:48:08;;;;;;;29.70;10.93;;;11.70;99.90;;;;;;5017794;28;20182;-84
2024/03/22 06:50:33;;;;;;;30.00;9.50;;;11.80;99.90;;;;;;5015620;28;20171;-85
2024/03/22 06:52:59;;;;;;;27.33;10.73;;;11.80;99.90;;;;;;5016420;28;20167;-84
2024/03/22 06:55:25;;;;;;;29.80;11.67;;;11.90;99.90;;;;;;5016578;28;20190;-85
2024/03/22 06:57:54;;;;;;;26.10;10.47;;;12.00;99.90;;;;;;5017990;28;20226;-85
2024/03/22 07:00:20;;;;;;;31.25;10.90;;;12.10;99.90;;;;;;5015270;28;20169;-85
2024/03/22 07:02:45;;;;;;;27.30;11.77;;;12.20;99.90;;;;;;5017280;28;20157;-84
2024/03/22 07:05:12;;;;;;;27.90;11.47;;;12.40;99.90;;;;;;5015392;28;20213;-84
2024/03/22 07:07:38;;;;;;;29.27;12.38;;;12.50;99.90;;;;;;5016726;28;20169;-85
2024/03/22 07:10:08;;;;;;;25.42;10.90;;;12.60;99.90;;;;;;5015363;28;20166;-85
2024/03/22 07:12:34;;;;;;;33.55;11.20;;;12.60;99.90;;;;;;5014883;28;20281;-85
2024/03/22 07:15:01;;;;;;;27.77;11.73;;;12.70;99.90;;;;;;5016169;28;20236;-84
2024/03/22 07:17:27;;;;;;;33.05;11.88;;;12.80;99.90;;;;;;5016541;28;20686;-85
2024/03/22 07:19:53;;;;;;;24.73;10.27;;;12.90;99.90;;;;;;5014845;28;20186;-85
2024/03/22 07:22:19;;;;;;;24.40;8.90;;;12.90;99.90;;;;;;5015206;28;20448;-85
2024/03/22 07:24:45;;;;;;;27.73;10.77;;;13.00;99.90;;;;;;5015776;28;20178;-85
2024/03/22 07:27:11;;;;;;;26.57;10.47;;;13.00;99.90;;;;;;5016257;28;20413;-84
2024/03/22 07:29:37;;;;;;;27.03;9.60;;;13.10;99.90;;;;;;5015622;28;20174;-84
2024/03/22 07:32:03;;;;;;;28.90;11.03;;;13.10;99.90;;;;;;5016331;28;20440;-84
2024/03/22 07:34:32;;;;;;;27.20;9.13;;;13.10;99.90;;;;;;5015993;28;20441;-84
2024/03/22 07:36:58;;;;;;;29.63;10.35;;;13.10;99.90;;;;;;5015653;28;20406;-84
2024/03/22 07:39:24;;;;;;;27.70;10.68;;;13.20;99.90;;;;;;5015945;28;20166;-84
2024/03/22 07:41:50;;;;;;;26.17;10.97;;;13.20;99.90;;;;;;5015011;28;20186;-84
2024/03/22 07:44:19;;;;;;;38.90;12.40;;;13.20;99.90;;;;;;5018918;28;21004;-85
2024/03/22 07:46:45;;;;;;;31.43;11.03;;;13.30;99.90;;;;;;5019432;28;20416;-84
2024/03/22 07:49:12;;;;;;;27.87;11.37;;;13.40;99.90;;;;;;5022040;28;20465;-84
2024/03/22 07:51:38;;;;;;;32.10;11.50;;;13.50;99.90;;;;;;5020672;28;20429;-84
2024/03/22 07:54:03;;;;;;;32.80;11.93;;;13.60;99.90;;;;;;5018933;28;20409;-85
2024/03/22 07:56:30;;;;;;;31.13;11.10;;;13.60;99.90;;;;;;5019131;28;20175;-84
2024/03/22 07:58:55;;;;;;;27.30;10.73;;;13.70;99.90;;;;;;5022574;28;20167;-86
2024/03/22 08:01:21;;;;;;;33.33;10.60;;;13.70;99.90;;;;;;5024426;28;20491;-85
2024/03/22 08:03:47;;;;;;;29.30;10.37;;;13.80;99.90;;;;;;5029078;28;20405;-86
2024/03/22 08:06:13;;;;;;;26.07;11.50;;;13.80;99.90;;;;;;5026310;28;20532;-86
2024/03/22 08:08:39;;;;;;;28.93;10.40;;;13.90;99.90;;;;;;5023925;28;20772;-86
2024/03/22 08:11:05;;;;;;;29.90;10.10;;;13.90;99.90;;;;;;5021832;28;20670;-84
2024/03/22 08:13:31;;;;;;;25.60;8.90;;;13.90;99.90;;;;;;5018933;28;20410;-84
2024/03/22 08:15:57;;;;;;;26.33;10.70;;;14.00;99.90;;;;;;5018837;28;20981;-84
2024/03/22 08:18:23;;;;;;;28.07;10.80;;;14.00;99.90;;;;;;5021689;28;20444;-84
2024/03/22 08:20:49;;;;;;;29.20;10.60;;;14.00;99.90;;;;;;5024719;28;20444;-86
2024/03/22 08:23:14;;;;;;;28.40;10.97;;;14.20;99.90;;;;;;5023678;28;20190;-85
2024/03/22 08:25:40;;;;;;;26.70;10.97;;;14.30;99.90;;;;;;5024869;28;20166;-85
2024/03/22 08:28:05;;;;;;;28.60;11.90;;;14.50;99.90;;;;;;5024533;28;20170;-85
2024/03/22 08:30:31;;;;;;;29.80;10.77;;;14.60;98.60;;;;;;5022139;28;20174;-86
2024/03/22 08:32:57;;;;;;;27.17;10.87;;;14.70;95.80;;;;;;5022440;28;20174;-86
2024/03/22 08:35:22;;;;;;;26.97;10.60;;;14.70;96.20;;;;;;5025328;28;20210;-86
2024/03/22 08:37:48;;;;;;;24.87;10.13;;;14.80;96.10;;;;;;5021755;28;20263;-85
2024/03/22 08:40:14;;;;;;;27.43;10.20;;;14.90;85.20;;;;;;5022953;28;20195;-84
2024/03/22 08:42:40;;;;;;;26.33;10.20;;;14.90;85.80;;;;;;5024034;28;20686;-85
2024/03/22 08:45:06;;;;;;;29.87;11.53;;;15.00;84.60;;;;;;5024983;28;20401;-86
2024/03/22 08:47:33;;;;;;;29.50;10.00;;;14.90;76.10;;;;;;5026310;28;20408;-86
2024/03/22 08:49:59;;;;;;;26.33;10.80;;;14.90;63.20;;;;;;5027191;28;20405;-85
2024/03/22 08:52:25;;;;;;;26.77;11.10;;;15.00;58.90;;;;;;5029412;28;20429;-85
2024/03/22 08:54:52;;;;;;;30.03;11.07;;;14.90;63.50;;;;;;5027890;28;20985;-86
2024/03/22 08:57:19;;;;;;;26.03;10.40;;;14.90;58.30;;;;;;5026281;28;20397;-86
2024/03/22 08:59:45;;;;;;;32.20;11.57;;;15.00;53.90;;;;;;5025090;28;20950;-86
2024/03/22 09:02:11;;;;;;;25.67;10.60;;;15.00;60.40;;;;;;5026048;28;20425;-86
2024/03/22 09:04:37;;;;;;;27.13;9.93;;;15.20;52.60;;;;;;5026250;28;20444;-86
2024/03/22 09:07:03;;;;;;;24.13;9.07;;;15.40;54.10;;;;;;5027922;28;20454;-86
2024/03/22 09:09:28;;;;;;;27.20;9.93;;;15.50;50.10;;;;;;5028306;28;20432;-86
2024/03/22 09:11:54;;;;;;;30.60;10.10;;;15.50;34.30;;;;;;5028299;28;20194;-86
2024/03/22 09:14:20;;;;;;;26.70;9.83;;;15.60;32.20;;;;;;5027523;28;20198;-85
2024/03/22 09:16:48;;;;;;;28.73;8.50;;;15.70;23.50;;;;;;5022948;28;20174;-86
2024/03/22 09:19:14;;;;;;;21.70;7.70;;;15.80;11.30;;;;;;5025951;28;20282;-86
2024/03/22 09:21:39;;;;;;;22.83;7.37;;;15.80;1.00;;;;;;5024835;28;20425;-85
2024/03/22 09:24:06;;;;;;;20.17;6.80;;;15.80;1.00;;;;;;5024138;28;20178;-84
2024/03/22 09:26:32;;;;;;;19.57;5.47;;;15.80;1.00;;;;;;5020724;28;20163;-85
2024/03/22 09:28:59;;;;;;;18.90;4.40;;;15.80;1.00;;;;;;5020087;28;20759;-85
2024/03/22 09:31:26;;;;;;;19.53;4.43;;;15.80;1.00;;;;;;5020027;28;20433;-86
2024/03/22 09:33:52;;;;;;;18.33;5.30;;;15.80;1.00;;;;;;5019139;28;20903;-85
2024/03/22 09:36:17;;;;;;;21.37;5.90;;;15.90;1.00;;;;;;5019587;28;20444;-86
2024/03/22 09:38:43;;;;;;;24.53;5.93;;;15.90;1.00;;;;;;5017527;28;20826;-85
2024/03/22 09:41:09;;;;;;;20.17;6.07;;;16.00;1.00;;;;;;5021305;28;20183;-86
2024/03/22 09:43:35;;;;;;;18.17;4.93;;;16.00;1.00;;;;;;5019669;28;20525;-85
2024/03/22 09:46:01;;;;;;;22.60;5.17;;;16.10;1.00;;;;;;5019502;28;20181;-85
2024/03/22 09:48:29;;;;;;;23.53;6.90;;;16.10;1.00;;;;;;5021453;28;20433;-85
2024/03/22 09:50:55;;;;;;;17.93;4.90;;;16.10;1.00;;;;;;5021550;28;20425;-85
2024/03/22 09:53:25;;;;;;;21.60;5.60;;;16.20;1.00;;;;;;5020785;28;20413;-85
2024/03/22 09:55:52;;;;;;;19.10;5.07;;;16.20;1.00;;;;;;5021434;28;20433;-85
2024/03/22 09:58:18;;;;;;;19.77;5.43;;;16.30;1.00;;;;;;5019218;28;20409;-85
2024/03/22 10:00:44;;;;;;;17.73;4.60;;;16.40;1.00;;;;;;5020497;28;20432;-85
2024/03/22 10:03:10;;;;;;;23.43;5.50;;;16.60;1.00;;;;;;5019289;28;20779;-86
2024/03/22 10:05:36;;;;;;;19.43;5.30;;;16.70;1.00;;;;;;5019266;28;20973;-86
2024/03/22 10:08:05;;;;;;;20.70;5.13;;;16.70;1.00;;;;;;5020271;28;20414;-85
2024/03/22 10:10:32;;;;;;;19.33;5.13;;;16.70;1.00;;;;;;5020211;28;20532;-85
2024/03/22 10:12:57;;;;;;;23.20;7.03;;;16.60;1.00;;;;;;5021458;28;20528;-85
2024/03/22 10:15:24;;;;;;;25.33;6.00;;;16.70;1.00;;;;;;5021677;28;20472;-85
2024/03/22 10:17:49;;;;;;;28.33;4.77;;;16.70;1.00;;;;;;5021679;28;20151;-83
2024/03/22 10:20:15;;;;;;;17.40;5.17;;;16.60;1.00;;;;;;5022263;28;20855;-85
2024/03/22 10:22:54;;;;;;;21.13;4.50;;;16.60;1.00;;;;;;5019913;28;20559;-85
2024/03/22 10:25:20;;;;;;;20.83;5.70;;;16.50;1.00;;;;;;5020505;28;20167;-86
2024/03/22 10:27:46;;;;;;;18.23;4.87;;;16.50;1.00;;;;;;5021335;28;20417;-85
2024/03/22 10:30:14;;;;;;;17.50;5.00;;;16.40;1.00;;;;;;5020591;28;20175;-85
2024/03/22 10:32:41;;;;;;;18.77;4.43;;;16.30;1.00;;;;;;5022704;28;20561;-85
2024/03/22 10:35:11;;;;;;;17.27;4.37;;;16.30;1.00;;;;;;5022303;28;20845;-86
2024/03/22 10:37:36;;;;;;;17.77;5.00;;;16.40;1.00;;;;;;5020463;28;20405;-84
2024/03/22 10:40:09;;;;;;;17.87;4.73;;;16.50;1.00;;;;;;5021760;28;20432;-86
2024/03/22 10:42:36;;;;;;;22.20;4.97;;;16.60;1.00;;;;;;5025419;28;20190;-87
2024/03/22 10:45:06;;;;;;;19.80;5.20;;;16.60;1.00;;;;;;5028285;28;20401;-85
2024/03/22 10:47:33;;;;;;;20.63;5.20;;;16.70;1.00;;;;;;5027347;28;20425;-86
2024/03/22 10:50:05;;;;;;;20.60;4.80;;;16.70;1.00;;;;;;5027876;28;20402;-86
2024/03/22 10:52:46;;;;;;;22.10;5.27;;;16.70;1.00;;;;;;5027945;28;20429;-87
2024/03/22 10:55:37;;;;;;;17.53;4.53;;;16.80;1.00;;;;;;5028065;28;20437;-86
2024/03/22 10:58:03;;;;;;;20.60;5.60;;;16.90;1.00;;;;;;5025401;28;20488;-86
2024/03/22 11:00:30;;;;;;;18.90;5.60;;;16.80;1.00;;;;;;5026286;28;20409;-86
2024/03/22 11:02:56;;;;;;;18.57;4.53;;;16.90;1.00;;;;;;5028656;28;20412;-87
2024/03/22 11:05:22;;;;;;;18.80;5.63;;;16.90;1.00;;;;;;5026755;28;20879;-85
2024/03/22 11:07:57;;;;;;;29.17;4.80;;;16.80;1.00;;;;;;5026250;28;20416;-85
2024/03/22 11:10:30;;;;;;;20.57;5.47;;;16.70;1.00;;;;;;5027605;28;20158;-86
2024/03/22 11:12:56;;;;;;;19.40;5.37;;;16.60;1.00;;;;;;5027825;28;20418;-86
2024/03/22 11:15:22;;;;;;;18.50;4.80;;;16.60;1.00;;;;;;5027172;28;20456;-86
2024/03/22 11:17:49;;;;;;;20.07;5.40;;;16.60;1.00;;;;;;5027519;28;20182;-86
2024/03/22 11:20:15;;;;;;;21.50;6.00;;;16.60;1.00;;;;;;5027799;28;20429;-86
2024/03/22 11:22:41;;;;;;;20.00;6.67;;;16.70;1.00;;;;;;5028234;28;20784;-86
2024/03/22 11:25:07;;;;;;;23.70;5.87;;;16.80;1.00;;;;;;5028005;28;20401;-86
2024/03/22 11:27:35;;;;;;;20.70;6.30;;;16.80;1.00;;;;;;5028248;28;20409;-85
2024/03/22 11:30:01;;;;;;;19.70;5.40;;;16.90;1.00;;;;;;5027222;28;20405;-86
2024/03/22 11:32:28;;;;;;;20.30;5.90;;;17.00;1.00;;;;;;5029220;28;20425;-85
2024/03/22 11:34:54;;;;;;;21.87;6.73;;;17.10;1.00;;;;;;5028629;28;20188;-86
2024/03/22 11:37:20;;;;;;;24.00;6.70;;;17.20;1.00;;;;;;5027935;28;20922;-85
2024/03/22 11:39:46;;;;;;;20.90;5.60;;;17.30;1.00;;;;;;5027610;28;20984;-86
2024/03/22 11:42:15;;;;;;;20.67;5.80;;;17.20;1.00;;;;;;5028096;28;20212;-85
2024/03/22 11:44:41;;;;;;;20.53;6.40;;;17.20;1.00;;;;;;5028168;28;20485;-86
2024/03/22 11:47:07;;;;;;;27.50;7.07;;;17.00;1.00;;;;;;5027633;28;20409;-86
2024/03/22 11:49:33;;;;;;;20.47;6.17;;;17.00;1.00;;;;;;5027119;28;20433;-86
2024/03/22 11:52:01;;;;;;;23.73;7.27;;;17.00;1.00;;;;;;5027407;28;20429;-86
2024/03/22 11:54:26;;;;;;;22.10;7.03;;;16.90;1.00;;;;;;5026302;28;20456;-86
2024/03/22 11:56:56;;;;;;;19.80;6.53;;;16.70;1.00;;;;;;5026505;28;20410;-85
2024/03/22 11:59:22;;;;;;;19.73;6.13;;;16.80;1.00;;;;;;5024994;28;20451;-85
2024/03/22 12:01:47;;;;;;;23.60;8.10;;;16.90;1.00;;;;;;5017320;28;20433;-84
2024/03/22 12:04:16;;;;;;;20.77;6.13;;;16.70;1.00;;;;;;5018920;28;20173;-85
2024/03/22 12:06:45;;;;;;;21.47;5.80;;;16.70;1.00;;;;;;5017439;28;20213;-85
2024/03/22 12:09:14;;;;;;;25.50;7.80;;;16.60;1.00;;;;;;5017042;28;20409;-83
2024/03/22 12:11:40;;;;;;;23.13;6.67;;;16.50;1.00;;;;;;5017624;28;20421;-85
2024/03/22 12:14:06;;;;;;;24.30;7.43;;;16.40;1.00;;;;;;5015227;28;20444;-84
2024/03/22 12:16:32;;;;;;;24.17;7.43;;;16.50;1.00;;;;;;5016155;28;20402;-84
2024/03/22 12:18:58;;;;;;;22.20;8.20;;;16.50;1.00;;;;;;5016304;28;20432;-84
2024/03/22 12:21:24;;;;;;;27.27;6.87;;;16.50;1.00;;;;;;5016177;28;20186;-84
2024/03/22 12:23:50;;;;;;;26.20;7.23;;;16.50;1.00;;;;;;5016882;28;20424;-84
2024/03/22 12:26:18;;;;;;;22.23;6.70;;;16.50;1.00;;;;;;5019448;28;20402;-84
2024/03/22 12:28:44;;;;;;;22.47;6.97;;;16.60;1.00;;;;;;5020726;28;20170;-84
2024/03/22 12:31:13;;;;;;;26.23;6.30;;;16.50;1.00;;;;;;5023263;28;20424;-84
2024/03/22 12:33:41;;;;;;;22.00;7.50;;;16.40;1.00;;;;;;5023146;28;20169;-84
2024/03/22 12:36:07;;;;;;;24.20;7.23;;;16.40;1.00;;;;;;5021519;28;20445;-84